createdAt,value
2018-05-09T00:00:06.576Z,2.30
2018-05-09T00:02:36.428Z,2.00
2018-05-09T00:05:05.671Z,2.17
2018-05-09T00:07:35.601Z,1.90
2018-05-09T00:10:04.678Z,2.27
2018-05-09T00:12:34.094Z,2.40
2018-05-09T00:15:04.042Z,2.20
2018-05-09T00:17:33.587Z,2.20
2018-05-09T00:20:03.115Z,2.50
2018-05-09T00:22:33.055Z,2.30
2018-05-09T00:25:02.579Z,1.90
2018-05-09T00:27:32.115Z,2.23
2018-05-09T00:30:01.654Z,2.00
2018-05-09T00:32:31.871Z,2.07
2018-05-09T00:35:01.917Z,2.03
2018-05-09T00:37:31.494Z,2.33
2018-05-09T00:40:01.414Z,2.17
2018-05-09T00:42:31.354Z,2.20
2018-05-09T00:45:00.876Z,2.50
2018-05-09T00:47:30.421Z,2.17
2018-05-09T00:49:59.929Z,2.43
2018-05-09T00:52:29.511Z,2.53
2018-05-09T00:54:58.879Z,2.17
2018-05-09T00:57:28.402Z,2.03
2018-05-09T00:59:58.024Z,1.90
2018-05-09T01:02:27.814Z,1.90
2018-05-09T01:04:57.432Z,2.47
2018-05-09T01:07:26.122Z,2.03
2018-05-09T01:09:55.656Z,2.20
2018-05-09T01:12:25.174Z,1.73
2018-05-09T01:14:56.446Z,2.17
2018-05-09T01:17:26.454Z,2.30
2018-05-09T01:19:56.034Z,2.20
2018-05-09T01:22:25.591Z,2.50
2018-05-09T01:24:55.512Z,2.30
2018-05-09T01:27:25.035Z,2.23
2018-05-09T01:29:54.496Z,2.27
2018-05-09T01:32:24.218Z,1.90
2018-05-09T01:34:53.806Z,2.43
2018-05-09T01:37:23.320Z,2.00
2018-05-09T01:39:53.326Z,2.47
2018-05-09T01:42:23.292Z,2.10
2018-05-09T01:44:52.836Z,1.90
2018-05-09T01:47:22.381Z,2.10
2018-05-09T01:49:51.698Z,2.10
2018-05-09T01:52:21.281Z,2.40
2018-05-09T01:54:51.938Z,2.13
2018-05-09T01:57:21.571Z,2.10
2018-05-09T01:59:51.156Z,2.30
2018-05-09T02:02:20.672Z,2.60
2018-05-09T02:04:50.217Z,2.47
2018-05-09T02:07:19.746Z,2.33
2018-05-09T02:09:49.454Z,2.60
2018-05-09T02:12:19.396Z,2.70
2018-05-09T02:14:48.922Z,2.47
2018-05-09T02:17:18.220Z,2.67
2018-05-09T02:19:47.752Z,2.30
2018-05-09T02:22:17.316Z,2.50
2018-05-09T02:24:47.142Z,2.20
2018-05-09T02:27:16.722Z,2.97
2018-05-09T02:29:46.627Z,2.33
2018-05-09T02:32:16.543Z,2.57
2018-05-09T02:34:46.504Z,2.43
2018-05-09T02:37:16.495Z,2.40
2018-05-09T02:39:46.034Z,2.27
2018-05-09T02:42:15.420Z,2.60
2018-05-09T02:44:44.948Z,2.40
2018-05-09T02:47:14.463Z,2.33
2018-05-09T02:49:43.987Z,2.40
2018-05-09T02:52:13.566Z,2.40
2018-05-09T02:54:43.094Z,2.50
2018-05-09T02:57:12.613Z,2.80
2018-05-09T02:59:42.534Z,2.20
2018-05-09T03:02:12.238Z,2.60
2018-05-09T03:04:41.742Z,2.40
2018-05-09T03:07:11.251Z,2.70
2018-05-09T03:09:40.797Z,2.50
2018-05-09T03:12:10.320Z,2.50
2018-05-09T03:14:39.850Z,2.83
2018-05-09T03:17:09.425Z,2.57
2018-05-09T03:19:38.956Z,3.00
2018-05-09T03:22:08.230Z,3.53
2018-05-09T03:24:37.747Z,3.30
2018-05-09T03:27:07.279Z,3.30
2018-05-09T03:29:36.794Z,3.30
2018-05-09T03:32:06.322Z,2.93
2018-05-09T03:34:36.530Z,3.10
2018-05-09T03:37:06.157Z,2.50
2018-05-09T03:39:35.672Z,2.80
2018-05-09T03:42:05.226Z,2.50
2018-05-09T03:44:34.745Z,2.40
2018-05-09T03:47:04.273Z,2.53
2018-05-09T03:49:34.210Z,2.63
2018-05-09T03:52:03.723Z,2.40
2018-05-09T03:54:33.537Z,2.50
2018-05-09T03:57:03.099Z,2.73
2018-05-09T03:59:33.021Z,2.80
2018-05-09T04:02:19.883Z,2.60
2018-05-09T04:05:06.292Z,2.70
2018-05-09T04:10:51.122Z,2.87
2018-05-09T04:13:20.831Z,2.70
2018-05-09T04:15:50.369Z,2.63
2018-05-09T04:18:19.959Z,2.87
2018-05-09T04:20:49.538Z,2.93
2018-05-09T04:23:19.278Z,2.70
2018-05-09T04:25:49.219Z,2.80
2018-05-09T04:28:18.807Z,3.10
2018-05-09T04:30:48.358Z,3.27
2018-05-09T04:33:17.908Z,2.83
2018-05-09T04:35:47.863Z,3.03
2018-05-09T04:38:17.417Z,4.10
2018-05-09T04:40:46.951Z,3.10
2018-05-09T04:43:16.466Z,3.10
2018-05-09T04:45:45.991Z,2.73
2018-05-09T04:48:15.561Z,2.43
2018-05-09T04:50:45.237Z,2.80
2018-05-09T04:53:14.796Z,3.10
2018-05-09T04:55:44.468Z,3.60
2018-05-09T04:58:14.066Z,3.80
2018-05-09T05:00:43.601Z,3.23
2018-05-09T05:03:12.896Z,3.37
2018-05-09T05:05:42.835Z,3.53
2018-05-09T05:08:13.176Z,3.22
2018-05-09T05:10:43.276Z,2.97
2018-05-09T05:13:13.673Z,7.15
2018-05-09T05:15:43.772Z,3.37
2018-05-09T05:18:14.175Z,3.60
2018-05-09T05:20:44.294Z,2.97
2018-05-09T05:23:14.775Z,3.45
2018-05-09T05:25:44.699Z,3.62
2018-05-09T05:28:14.812Z,2.87
2018-05-09T05:30:44.910Z,2.78
2018-05-09T05:33:14.982Z,3.30
2018-05-09T05:35:45.149Z,3.30
2018-05-09T05:38:14.945Z,3.00
2018-05-09T05:40:44.787Z,3.13
2018-05-09T05:43:14.971Z,3.35
2018-05-09T05:45:44.816Z,3.73
2018-05-09T05:48:14.643Z,3.67
2018-05-09T05:50:44.756Z,3.62
2018-05-09T05:53:14.574Z,3.57
2018-05-09T05:55:44.653Z,3.30
2018-05-09T05:58:15.487Z,3.53
2018-05-09T06:00:45.961Z,3.40
2018-05-09T06:03:16.491Z,3.37
2018-05-09T06:05:46.576Z,3.30
2018-05-09T06:08:16.685Z,3.30
2018-05-09T06:10:47.193Z,2.95
2018-05-09T06:13:16.940Z,3.12
2018-05-09T06:15:47.038Z,3.60
2018-05-09T06:18:17.136Z,3.20
2018-05-09T06:20:48.477Z,3.72
2018-05-09T06:23:18.742Z,3.40
2018-05-09T06:25:49.526Z,3.70
2018-05-09T06:28:19.592Z,4.10
2018-05-09T06:30:50.375Z,3.95
2018-05-09T06:33:20.888Z,4.28
2018-05-09T06:35:51.020Z,3.97
2018-05-09T06:38:21.123Z,4.35
2018-05-09T06:40:51.201Z,4.47
2018-05-09T06:43:21.675Z,4.10
2018-05-09T06:45:51.590Z,4.57
2018-05-09T06:48:21.548Z,4.67
2018-05-09T06:50:51.067Z,4.10
2018-05-09T06:53:20.585Z,4.40
2018-05-09T06:55:50.307Z,5.00
2018-05-09T06:58:20.272Z,4.30
2018-05-09T07:00:50.283Z,4.70
2018-05-09T07:03:20.139Z,4.45
2018-05-09T07:05:50.615Z,4.50
2018-05-09T07:08:20.684Z,5.10
2018-05-09T07:10:51.228Z,5.05
2018-05-09T07:13:21.375Z,4.90
2018-05-09T07:15:54.565Z,5.28
2018-05-09T07:18:24.683Z,5.28
2018-05-09T07:20:54.783Z,5.03
2018-05-09T07:23:24.883Z,5.10
2018-05-09T07:25:55.662Z,5.45
2018-05-09T07:28:25.615Z,5.25
2018-05-09T07:30:56.145Z,4.65
2018-05-09T07:33:26.257Z,5.00
2018-05-09T07:35:56.409Z,7.22
2018-05-09T07:38:27.259Z,5.75
2018-05-09T07:40:57.315Z,5.45
2018-05-09T07:43:27.411Z,5.07
2018-05-09T07:45:56.938Z,5.50
2018-05-09T07:48:27.101Z,5.62
2018-05-09T07:50:56.652Z,5.57
2018-05-09T07:53:26.799Z,5.28
2018-05-09T07:55:56.391Z,5.57
2018-05-09T07:58:26.281Z,5.27
2018-05-09T08:00:55.799Z,6.13
2018-05-09T08:03:25.323Z,6.03
2018-05-09T08:05:55.327Z,5.73
2018-05-09T08:08:25.029Z,5.43
2018-05-09T08:10:54.786Z,6.07
2018-05-09T08:13:24.600Z,5.60
2018-05-09T08:15:54.333Z,5.97
2018-05-09T08:18:23.892Z,6.10
2018-05-09T08:20:53.618Z,6.10
2018-05-09T08:23:23.140Z,6.27
2018-05-09T08:25:52.640Z,6.60
2018-05-09T08:28:22.420Z,6.27
2018-05-09T08:30:52.156Z,5.87
2018-05-09T08:33:21.688Z,6.00
2018-05-09T08:35:51.227Z,5.83
2018-05-09T08:38:20.758Z,6.13
2018-05-09T08:40:50.864Z,6.20
2018-05-09T08:43:21.028Z,6.62
2018-05-09T08:45:51.293Z,6.20
2018-05-09T08:48:21.374Z,6.43
2018-05-09T08:50:51.461Z,6.60
2018-05-09T08:53:21.422Z,6.73
2018-05-09T08:55:50.980Z,6.80
2018-05-09T08:58:21.100Z,7.05
2018-05-09T09:00:51.203Z,6.57
2018-05-09T09:03:21.283Z,6.43
2018-05-09T09:05:51.845Z,6.43
2018-05-09T09:08:21.366Z,7.60
2018-05-09T09:10:51.823Z,6.35
2018-05-09T09:13:22.107Z,6.20
2018-05-09T09:15:52.204Z,6.37
2018-05-09T09:18:22.784Z,6.35
2018-05-09T09:20:52.981Z,6.10
2018-05-09T09:23:23.203Z,6.65
2018-05-09T09:25:53.322Z,6.20
2018-05-09T09:28:24.284Z,5.75
2018-05-09T09:30:54.393Z,5.57
2018-05-09T09:33:24.474Z,5.40
2018-05-09T09:35:54.946Z,5.45
2018-05-09T09:38:25.092Z,5.90
2018-05-09T09:40:55.617Z,9.13
2018-05-09T09:43:25.732Z,5.20
2018-05-09T09:45:55.873Z,12.55
2018-05-09T09:48:26.086Z,5.30
2018-05-09T09:50:57.427Z,4.65
2018-05-09T09:53:27.508Z,4.43
2018-05-09T09:55:57.645Z,4.47
2018-05-09T09:58:27.791Z,4.93
2018-05-09T10:00:57.890Z,4.72
2018-05-09T10:03:27.964Z,4.10
2018-05-09T10:05:58.465Z,4.05
2018-05-09T10:08:28.573Z,4.25
2018-05-09T10:10:58.859Z,4.40
2018-05-09T10:13:28.986Z,4.47
2018-05-09T10:15:59.147Z,4.28
2018-05-09T10:18:29.374Z,4.37
2018-05-09T10:20:59.451Z,4.70
2018-05-09T10:23:29.531Z,4.43
2018-05-09T10:26:00.306Z,4.75
2018-05-09T10:28:30.641Z,3.58
2018-05-09T10:31:00.718Z,3.53
2018-05-09T10:33:31.211Z,4.05
2018-05-09T10:36:01.327Z,4.90
2018-05-09T10:38:31.419Z,5.30
2018-05-09T10:41:01.232Z,4.65
2018-05-09T10:43:31.416Z,4.72
2018-05-09T10:46:01.935Z,4.93
2018-05-09T10:48:31.795Z,4.60
2018-05-09T10:51:01.676Z,4.93
2018-05-09T10:53:31.771Z,4.95
2018-05-09T10:56:01.835Z,4.50
2018-05-09T10:58:31.912Z,4.45
2018-05-09T11:01:01.967Z,4.22
2018-05-09T11:03:32.974Z,4.60
2018-05-09T11:06:03.134Z,4.40
2018-05-09T11:08:33.318Z,4.70
2018-05-09T11:11:03.168Z,5.28
2018-05-09T11:13:33.068Z,5.37
2018-05-09T11:16:03.584Z,5.28
2018-05-09T11:18:33.843Z,4.55
2018-05-09T11:21:04.500Z,4.70
2018-05-09T11:23:34.578Z,4.85
2018-05-09T11:26:04.456Z,4.95
2018-05-09T11:28:34.598Z,4.60
2018-05-09T11:31:05.132Z,5.22
2018-05-09T11:33:35.604Z,4.37
2018-05-09T11:36:05.704Z,4.57
2018-05-09T11:38:35.818Z,3.45
2018-05-09T11:41:06.211Z,3.37
2018-05-09T11:43:36.453Z,3.70
2018-05-09T11:46:06.543Z,3.50
2018-05-09T11:48:36.707Z,3.78
2018-05-09T11:51:06.829Z,3.62
2018-05-09T11:53:36.927Z,3.55
2018-05-09T11:56:07.398Z,4.37
2018-05-09T11:58:37.470Z,4.43
2018-05-09T12:01:07.955Z,3.95
2018-05-09T12:03:38.046Z,3.40
2018-05-09T12:06:08.125Z,3.05
2018-05-09T12:08:38.503Z,2.50
2018-05-09T12:11:08.373Z,3.15
2018-05-09T12:13:38.851Z,3.00
2018-05-09T12:16:08.705Z,3.15
2018-05-09T12:18:38.585Z,3.30
2018-05-09T12:21:08.716Z,2.97
2018-05-09T12:23:38.825Z,3.25
2018-05-09T12:26:08.905Z,3.10
2018-05-09T12:28:39.402Z,2.95
2018-05-09T12:31:09.353Z,3.15
2018-05-09T12:33:39.426Z,3.40
2018-05-09T12:36:09.495Z,3.28
2018-05-09T12:38:39.777Z,3.22
2018-05-09T12:41:09.613Z,3.30
2018-05-09T12:43:40.112Z,3.40
2018-05-09T12:46:10.238Z,4.03
2018-05-09T12:48:40.377Z,3.28
2018-05-09T12:51:10.581Z,3.58
2018-05-09T12:53:40.668Z,3.12
2018-05-09T12:56:10.646Z,3.72
2018-05-09T12:58:40.835Z,3.47
2018-05-09T13:01:11.345Z,3.25
2018-05-09T13:03:41.455Z,3.15
2018-05-09T13:06:11.567Z,3.15
2018-05-09T13:08:41.991Z,3.17
2018-05-09T13:11:12.069Z,3.28
2018-05-09T13:13:42.583Z,3.12
2018-05-09T13:16:12.665Z,3.20
2018-05-09T13:18:42.898Z,4.03
2018-05-09T13:21:12.975Z,3.25
2018-05-09T13:23:43.529Z,3.17
2018-05-09T13:26:14.235Z,3.70
2018-05-09T13:28:44.501Z,3.40
2018-05-09T13:31:14.593Z,3.00
2018-05-09T13:33:44.677Z,3.10
2018-05-09T13:36:14.805Z,3.20
2018-05-09T13:38:44.907Z,2.97
2018-05-09T13:41:14.999Z,3.22
2018-05-09T13:43:45.101Z,2.60
2018-05-09T13:46:15.175Z,2.80
2018-05-09T13:48:45.489Z,3.10
2018-05-09T13:51:15.576Z,2.83
2018-05-09T13:53:45.686Z,3.12
2018-05-09T13:56:15.903Z,2.85
2018-05-09T13:58:45.992Z,3.00
2018-05-09T14:01:16.467Z,2.80
2018-05-09T14:03:46.555Z,2.87
2018-05-09T14:06:16.809Z,3.10
2018-05-09T14:08:46.895Z,2.58
2018-05-09T14:11:17.361Z,2.80
2018-05-09T14:13:47.449Z,2.83
2018-05-09T14:16:17.515Z,2.70
2018-05-09T14:18:47.367Z,3.53
2018-05-09T14:21:17.867Z,3.03
2018-05-09T14:23:47.941Z,3.17
2018-05-09T14:26:17.995Z,2.75
2018-05-09T14:28:48.057Z,3.12
2018-05-09T14:31:18.517Z,2.70
2018-05-09T14:33:48.607Z,2.80
2018-05-09T14:36:19.088Z,3.17
2018-05-09T14:38:49.198Z,3.50
2018-05-09T14:41:19.289Z,3.72
2018-05-09T14:43:49.382Z,4.80
2018-05-09T14:46:19.833Z,3.45
2018-05-09T14:48:49.924Z,3.42
2018-05-09T14:51:20.437Z,3.33
2018-05-09T14:53:50.307Z,3.33
2018-05-09T14:56:20.483Z,3.33
2018-05-09T14:58:50.615Z,3.30
2018-05-09T15:01:21.072Z,3.08
2018-05-09T15:03:50.927Z,3.58
2018-05-09T15:06:21.011Z,3.53
2018-05-09T15:08:51.145Z,3.67
2018-05-09T15:11:21.281Z,3.78
2018-05-09T15:13:51.383Z,3.60
2018-05-09T15:16:21.462Z,3.58
2018-05-09T15:18:51.932Z,4.18
2018-05-09T15:21:22.124Z,3.50
2018-05-09T15:23:52.209Z,3.72
2018-05-09T15:26:22.765Z,3.87
2018-05-09T15:28:53.015Z,3.35
2018-05-09T15:31:23.347Z,3.92
2018-05-09T15:33:53.424Z,3.83
2018-05-09T15:36:23.900Z,3.80
2018-05-09T15:38:54.089Z,3.72
2018-05-09T15:41:24.680Z,3.62
2018-05-09T15:43:54.837Z,3.70
2018-05-09T15:46:24.963Z,4.62
2018-05-09T15:48:55.075Z,3.65
2018-05-09T15:51:25.566Z,3.70
2018-05-09T15:53:55.685Z,3.47
2018-05-09T15:56:25.799Z,3.28
2018-05-09T15:58:55.917Z,3.47
2018-05-09T16:01:26.895Z,3.58
2018-05-09T16:03:57.399Z,2.97
2018-05-09T16:06:27.475Z,3.45
2018-05-09T16:08:57.568Z,3.35
2018-05-09T16:11:28.080Z,4.03
2018-05-09T16:13:58.204Z,3.70
2018-05-09T16:16:28.659Z,3.20
2018-05-09T16:25:47.308Z,3.33
2018-05-09T16:28:18.786Z,3.12
2018-05-09T16:30:48.912Z,3.20
2018-05-09T16:33:19.416Z,3.40
2018-05-09T16:35:50.116Z,3.10
2018-05-09T16:38:20.606Z,3.22
2018-05-09T16:40:51.110Z,3.47
2018-05-09T16:43:22.454Z,2.78
2018-05-09T16:45:52.964Z,3.35
2018-05-09T16:48:23.035Z,3.67
2018-05-09T16:50:53.496Z,3.60
2018-05-09T16:53:23.600Z,2.72
2018-05-09T16:55:54.241Z,2.90
2018-05-09T16:58:24.345Z,2.67
2018-05-09T17:00:55.547Z,2.95
2018-05-09T17:03:25.701Z,3.83
2018-05-09T17:05:55.943Z,4.00
2018-05-09T17:08:26.809Z,3.75
2018-05-09T17:10:57.011Z,3.97
2018-05-09T17:13:27.546Z,3.80
2018-05-09T17:15:57.481Z,3.80
2018-05-09T17:18:27.044Z,3.97
2018-05-09T17:20:56.785Z,3.80
2018-05-09T17:23:26.734Z,3.87
2018-05-09T17:25:56.276Z,3.87
2018-05-09T17:28:25.814Z,3.50
2018-05-09T17:30:56.012Z,3.83
2018-05-09T17:33:25.535Z,3.60
2018-05-09T17:35:55.802Z,3.72
2018-05-09T17:38:25.328Z,3.50
2018-05-09T17:40:54.879Z,3.50
2018-05-09T17:43:25.084Z,3.97
2018-05-09T17:45:55.044Z,4.27
2018-05-09T17:48:24.651Z,3.57
2018-05-09T17:50:55.822Z,4.93
2018-05-09T17:53:25.359Z,4.07
2018-05-09T17:55:54.920Z,4.10
2018-05-09T17:58:24.520Z,4.13
2018-05-09T18:00:54.041Z,4.23
2018-05-09T18:03:23.940Z,4.37
2018-05-09T18:05:53.892Z,4.20
2018-05-09T18:08:24.179Z,4.80
2018-05-09T18:10:53.714Z,4.53
2018-05-09T18:13:23.259Z,5.13
2018-05-09T18:15:53.193Z,4.90
2018-05-09T18:18:23.423Z,4.90
2018-05-09T18:20:53.564Z,4.90
2018-05-09T18:23:23.924Z,4.80
2018-05-09T18:25:53.499Z,5.13
2018-05-09T18:28:23.033Z,5.80
2018-05-09T18:30:52.573Z,4.80
2018-05-09T18:33:22.503Z,5.23
2018-05-09T18:35:52.096Z,5.03
2018-05-09T18:38:22.247Z,5.20
2018-05-09T18:40:51.777Z,5.37
2018-05-09T18:43:21.283Z,5.17
2018-05-09T18:45:50.824Z,5.07
2018-05-09T18:48:21.553Z,5.00
2018-05-09T18:50:51.481Z,5.30
2018-05-09T18:53:21.449Z,5.43
2018-05-09T18:55:51.187Z,4.73
2018-05-09T18:58:20.713Z,4.33
2018-05-09T19:00:50.401Z,5.33
2018-05-09T19:03:19.982Z,4.40
2018-05-09T19:05:49.556Z,4.23
2018-05-09T19:08:19.309Z,4.53
2018-05-09T19:10:48.875Z,4.90
2018-05-09T19:13:18.419Z,4.70
2018-05-09T19:15:48.303Z,4.90
2018-05-09T19:18:19.104Z,4.70
2018-05-09T19:20:48.553Z,4.47
2018-05-09T19:23:18.167Z,4.40
2018-05-09T19:25:48.047Z,4.60
2018-05-09T19:28:17.669Z,4.53
2018-05-09T19:30:46.906Z,4.87
2018-05-09T19:33:16.474Z,5.30
2018-05-09T19:35:46.015Z,5.17
2018-05-09T19:38:15.554Z,5.20
2018-05-09T19:40:45.506Z,5.27
2018-05-09T19:43:15.631Z,6.10
2018-05-09T19:45:45.234Z,4.83
2018-05-09T19:48:14.580Z,4.77
2018-05-09T19:50:43.918Z,5.37
2018-05-09T19:53:13.951Z,5.00
2018-05-09T19:55:43.623Z,4.87
2018-05-09T19:58:13.598Z,5.07
2018-05-09T20:00:43.137Z,4.53
2018-05-09T20:03:12.670Z,4.50
2018-05-09T20:05:42.625Z,4.53
2018-05-09T20:08:12.265Z,4.77
2018-05-09T20:10:41.846Z,5.00
2018-05-09T20:13:11.819Z,5.00
2018-05-09T20:15:41.856Z,5.13
2018-05-09T20:18:11.754Z,5.10
2018-05-09T20:20:41.784Z,5.70
2018-05-09T20:23:11.336Z,5.30
2018-05-09T20:25:40.880Z,5.50
2018-05-09T20:28:10.900Z,6.40
2018-05-09T20:30:46.233Z,4.70
2018-05-09T20:33:16.255Z,5.60
2018-05-09T20:35:46.203Z,4.83
2018-05-09T20:38:15.749Z,5.37
2018-05-09T20:40:45.279Z,5.77
2018-05-09T20:43:15.230Z,6.07
2018-05-09T20:45:44.747Z,5.90
2018-05-09T20:48:14.291Z,5.73
2018-05-09T20:50:43.834Z,6.23
2018-05-09T20:53:13.448Z,5.80
2018-05-09T20:55:43.175Z,5.83
2018-05-09T20:58:12.697Z,5.97
2018-05-09T21:00:42.290Z,5.90
2018-05-09T21:03:11.513Z,5.90
2018-05-09T21:05:40.721Z,5.90
2018-05-09T21:08:10.275Z,5.70
2018-05-09T21:10:39.823Z,5.50
2018-05-09T21:13:09.442Z,5.63
2018-05-09T21:15:39.057Z,5.40
2018-05-09T21:18:09.328Z,5.67
2018-05-09T21:20:47.357Z,5.50
2018-05-09T21:23:25.261Z,6.27
2018-05-09T21:25:55.993Z,6.17
2018-05-09T21:28:25.609Z,5.70
2018-05-09T21:30:55.299Z,5.90
2018-05-09T21:33:24.903Z,5.37
2018-05-09T21:35:56.212Z,5.30
2018-05-09T21:38:25.850Z,5.37
2018-05-09T21:40:55.920Z,5.07
2018-05-09T21:43:26.326Z,4.97
2018-05-09T21:45:55.563Z,5.43
2018-05-09T21:48:25.500Z,5.57
2018-05-09T21:50:55.404Z,5.47
2018-05-09T21:53:25.377Z,5.87
2018-05-09T21:55:55.017Z,5.10
2018-05-09T21:58:25.058Z,5.30
2018-05-09T22:00:54.834Z,5.90
2018-05-09T22:03:24.370Z,5.57
2018-05-09T22:05:54.304Z,5.70
2018-05-09T22:08:23.856Z,5.43
2018-05-09T22:10:53.402Z,5.33
2018-05-09T22:13:22.894Z,5.80
2018-05-09T22:15:52.608Z,4.90
2018-05-09T22:18:22.540Z,5.17
2018-05-09T22:20:52.070Z,4.87
2018-05-09T22:23:21.630Z,5.40
2018-05-09T22:25:51.544Z,5.37
2018-05-09T22:28:21.474Z,4.90
2018-05-09T22:30:51.522Z,5.13
2018-05-09T22:33:21.163Z,5.17
2018-05-09T22:35:51.026Z,5.50
2018-05-09T22:38:20.598Z,5.83
2018-05-09T22:40:50.306Z,6.00
2018-05-09T22:43:19.914Z,5.57
2018-05-09T22:45:49.480Z,5.93
2018-05-09T22:48:19.018Z,5.00
2018-05-09T22:50:48.532Z,5.80
2018-05-09T22:53:18.072Z,5.17
2018-05-09T22:55:47.626Z,5.13
2018-05-09T22:58:17.172Z,5.37
2018-05-09T23:00:47.098Z,5.17
2018-05-09T23:03:16.791Z,5.20
2018-05-09T23:05:46.762Z,5.40
2018-05-09T23:08:16.337Z,5.37
2018-05-09T23:10:45.874Z,4.90
2018-05-09T23:13:15.379Z,5.37
2018-05-09T23:15:44.924Z,5.30
2018-05-09T23:18:14.554Z,5.30
2018-05-09T23:20:44.504Z,5.20
2018-05-09T23:23:14.024Z,4.90
2018-05-09T23:25:43.556Z,5.17
2018-05-09T23:28:13.090Z,5.07
2018-05-09T23:30:43.028Z,5.20
2018-05-09T23:33:12.594Z,5.20
2018-05-09T23:35:42.513Z,5.00
2018-05-09T23:38:12.497Z,4.77
2018-05-09T23:40:42.107Z,5.37
2018-05-09T23:43:11.734Z,5.10
2018-05-09T23:45:41.936Z,5.17
2018-05-09T23:48:11.250Z,5.40
2018-05-09T23:50:40.572Z,5.20
2018-05-09T23:53:10.210Z,5.27
2018-05-09T23:55:39.787Z,5.27
2018-05-09T23:58:09.550Z,4.53
